sensor_id;sensor_type;location;lat;lon;timestamp;P1;durP1;ratioP1;P2;durP2;ratioP2
28910;SDS011;16028;42.642;23.310;2022-10-30T00:00:43;7.45;;;5.28;;
28910;SDS011;16028;42.642;23.310;2022-10-30T00:03:11;8.38;;;5.32;;
28910;SDS011;16028;42.642;23.310;2022-10-30T00:05:41;7.85;;;4.93;;
28910;SDS011;16028;42.642;23.310;2022-10-30T00:08:09;5.95;;;4.53;;
28910;SDS011;16028;42.642;23.310;2022-10-30T00:10:37;6.72;;;4.68;;
28910;SDS011;16028;42.642;23.310;2022-10-30T00:13:05;7.25;;;4.88;;
28910;SDS011;16028;42.642;23.310;2022-10-30T00:15:32;6.80;;;4.78;;
28910;SDS011;16028;42.642;23.310;2022-10-30T00:18:00;6.22;;;4.93;;
28910;SDS011;16028;42.642;23.310;2022-10-30T00:20:30;6.45;;;4.55;;
28910;SDS011;16028;42.642;23.310;2022-10-30T00:22:57;6.35;;;3.92;;
28910;SDS011;16028;42.642;23.310;2022-10-30T00:25:23;6.10;;;4.57;;
28910;SDS011;16028;42.642;23.310;2022-10-30T00:27:50;5.90;;;4.30;;
28910;SDS011;16028;42.642;23.310;2022-10-30T00:30:18;5.95;;;4.00;;
28910;SDS011;16028;42.642;23.310;2022-10-30T00:32:45;4.70;;;3.90;;
28910;SDS011;16028;42.642;23.310;2022-10-30T00:35:12;7.43;;;4.00;;
28910;SDS011;16028;42.642;23.310;2022-10-30T00:37:38;6.90;;;4.35;;
28910;SDS011;16028;42.642;23.310;2022-10-30T00:40:06;9.93;;;4.70;;
28910;SDS011;16028;42.642;23.310;2022-10-30T00:42:33;5.63;;;4.07;;
28910;SDS011;16028;42.642;23.310;2022-10-30T00:45:00;5.32;;;4.15;;
28910;SDS011;16028;42.642;23.310;2022-10-30T00:47:29;6.13;;;4.28;;
28910;SDS011;16028;42.642;23.310;2022-10-30T00:50:00;6.43;;;3.90;;
28910;SDS011;16028;42.642;23.310;2022-10-30T00:52:32;5.28;;;4.07;;
28910;SDS011;16028;42.642;23.310;2022-10-30T00:55:03;7.95;;;4.68;;
28910;SDS011;16028;42.642;23.310;2022-10-30T00:57:33;5.65;;;4.57;;
28910;SDS011;16028;42.642;23.310;2022-10-30T01:00:01;6.10;;;4.53;;
28910;SDS011;16028;42.642;23.310;2022-10-30T01:02:31;7.00;;;5.00;;
28910;SDS011;16028;42.642;23.310;2022-10-30T01:04:58;7.65;;;4.53;;
28910;SDS011;16028;42.642;23.310;2022-10-30T01:07:26;7.63;;;5.15;;
28910;SDS011;16028;42.642;23.310;2022-10-30T01:09:53;6.47;;;4.95;;
28910;SDS011;16028;42.642;23.310;2022-10-30T01:12:20;6.95;;;5.57;;
28910;SDS011;16028;42.642;23.310;2022-10-30T01:14:49;7.07;;;5.53;;
28910;SDS011;16028;42.642;23.310;2022-10-30T01:17:26;9.88;;;6.47;;
28910;SDS011;16028;42.642;23.310;2022-10-30T01:20:17;9.10;;;6.43;;
28910;SDS011;16028;42.642;23.310;2022-10-30T01:22:54;9.57;;;6.95;;
28910;SDS011;16028;42.642;23.310;2022-10-30T01:25:34;14.30;;;7.40;;
28910;SDS011;16028;42.642;23.310;2022-10-30T01:28:19;10.57;;;7.13;;
28910;SDS011;16028;42.642;23.310;2022-10-30T01:30:59;11.73;;;7.70;;
28910;SDS011;16028;42.642;23.310;2022-10-30T01:33:39;10.07;;;7.70;;
28910;SDS011;16028;42.642;23.310;2022-10-30T01:36:17;12.68;;;8.15;;
28910;SDS011;16028;42.642;23.310;2022-10-30T01:38:52;11.23;;;7.88;;
28910;SDS011;16028;42.642;23.310;2022-10-30T01:41:21;9.73;;;7.88;;
28910;SDS011;16028;42.642;23.310;2022-10-30T01:43:49;12.15;;;8.02;;
28910;SDS011;16028;42.642;23.310;2022-10-30T01:46:25;13.60;;;7.60;;
28910;SDS011;16028;42.642;23.310;2022-10-30T01:49:06;12.60;;;8.38;;
28910;SDS011;16028;42.642;23.310;2022-10-30T01:51:49;13.38;;;8.93;;
28910;SDS011;16028;42.642;23.310;2022-10-30T01:54:26;14.75;;;8.50;;
28910;SDS011;16028;42.642;23.310;2022-10-30T01:57:03;11.90;;;8.50;;
28910;SDS011;16028;42.642;23.310;2022-10-30T01:59:38;10.25;;;8.40;;
28910;SDS011;16028;42.642;23.310;2022-10-30T02:02:10;12.25;;;8.65;;
28910;SDS011;16028;42.642;23.310;2022-10-30T02:04:38;12.05;;;8.93;;
28910;SDS011;16028;42.642;23.310;2022-10-30T02:07:06;12.35;;;8.57;;
28910;SDS011;16028;42.642;23.310;2022-10-30T02:09:33;12.88;;;8.13;;
28910;SDS011;16028;42.642;23.310;2022-10-30T02:12:01;13.45;;;8.00;;
28910;SDS011;16028;42.642;23.310;2022-10-30T02:14:29;11.15;;;7.47;;
28910;SDS011;16028;42.642;23.310;2022-10-30T02:16:59;8.02;;;6.60;;
28910;SDS011;16028;42.642;23.310;2022-10-30T02:19:29;10.00;;;7.13;;
28910;SDS011;16028;42.642;23.310;2022-10-30T02:21:57;14.27;;;6.70;;
28910;SDS011;16028;42.642;23.310;2022-10-30T02:24:24;9.48;;;6.50;;
28910;SDS011;16028;42.642;23.310;2022-10-30T02:26:50;10.77;;;7.15;;
28910;SDS011;16028;42.642;23.310;2022-10-30T02:29:17;11.02;;;8.18;;
28910;SDS011;16028;42.642;23.310;2022-10-30T02:31:46;10.63;;;7.75;;
28910;SDS011;16028;42.642;23.310;2022-10-30T02:34:13;12.93;;;8.00;;
28910;SDS011;16028;42.642;23.310;2022-10-30T02:36:40;11.68;;;8.75;;
28910;SDS011;16028;42.642;23.310;2022-10-30T02:39:08;10.95;;;8.40;;
28910;SDS011;16028;42.642;23.310;2022-10-30T02:41:35;12.68;;;8.43;;
28910;SDS011;16028;42.642;23.310;2022-10-30T02:44:02;12.52;;;9.02;;
28910;SDS011;16028;42.642;23.310;2022-10-30T02:46:30;12.60;;;8.73;;
28910;SDS011;16028;42.642;23.310;2022-10-30T02:48:57;16.67;;;9.20;;
28910;SDS011;16028;42.642;23.310;2022-10-30T02:51:24;13.00;;;9.40;;
28910;SDS011;16028;42.642;23.310;2022-10-30T02:53:51;12.20;;;8.75;;
28910;SDS011;16028;42.642;23.310;2022-10-30T02:56:19;12.75;;;8.50;;
28910;SDS011;16028;42.642;23.310;2022-10-30T02:58:45;10.50;;;8.55;;
28910;SDS011;16028;42.642;23.310;2022-10-30T03:01:13;11.82;;;7.93;;
28910;SDS011;16028;42.642;23.310;2022-10-30T03:03:41;11.10;;;7.90;;
28910;SDS011;16028;42.642;23.310;2022-10-30T03:06:09;12.07;;;7.35;;
28910;SDS011;16028;42.642;23.310;2022-10-30T03:08:37;10.65;;;7.65;;
28910;SDS011;16028;42.642;23.310;2022-10-30T03:11:05;12.50;;;7.80;;
28910;SDS011;16028;42.642;23.310;2022-10-30T03:13:35;11.10;;;8.23;;
28910;SDS011;16028;42.642;23.310;2022-10-30T03:16:05;12.75;;;8.45;;
28910;SDS011;16028;42.642;23.310;2022-10-30T03:18:34;11.95;;;8.07;;
28910;SDS011;16028;42.642;23.310;2022-10-30T03:21:03;13.43;;;8.15;;
28910;SDS011;16028;42.642;23.310;2022-10-30T03:23:31;11.55;;;8.40;;
28910;SDS011;16028;42.642;23.310;2022-10-30T03:25:58;15.35;;;8.82;;
28910;SDS011;16028;42.642;23.310;2022-10-30T03:28:26;13.77;;;8.85;;
28910;SDS011;16028;42.642;23.310;2022-10-30T03:30:58;14.00;;;9.68;;
28910;SDS011;16028;42.642;23.310;2022-10-30T03:33:25;12.52;;;9.80;;
28910;SDS011;16028;42.642;23.310;2022-10-30T03:35:52;16.33;;;10.68;;
28910;SDS011;16028;42.642;23.310;2022-10-30T03:38:19;14.65;;;11.18;;
28910;SDS011;16028;42.642;23.310;2022-10-30T03:40:46;16.75;;;12.52;;
28910;SDS011;16028;42.642;23.310;2022-10-30T03:43:13;18.80;;;12.00;;
28910;SDS011;16028;42.642;23.310;2022-10-30T03:45:44;18.85;;;11.13;;
28910;SDS011;16028;42.642;23.310;2022-10-30T03:48:14;11.57;;;9.48;;
28910;SDS011;16028;42.642;23.310;2022-10-30T03:50:41;12.20;;;9.52;;
28910;SDS011;16028;42.642;23.310;2022-10-30T03:53:08;14.13;;;10.85;;
28910;SDS011;16028;42.642;23.310;2022-10-30T03:55:35;11.77;;;10.20;;
28910;SDS011;16028;42.642;23.310;2022-10-30T03:58:01;14.35;;;10.38;;
28910;SDS011;16028;42.642;23.310;2022-10-30T04:00:28;23.63;;;12.10;;
28910;SDS011;16028;42.642;23.310;2022-10-30T04:02:55;18.27;;;11.68;;
28910;SDS011;16028;42.642;23.310;2022-10-30T04:05:23;16.00;;;11.38;;
28910;SDS011;16028;42.642;23.310;2022-10-30T04:07:54;17.52;;;11.57;;
28910;SDS011;16028;42.642;23.310;2022-10-30T04:10:21;14.48;;;10.85;;
28910;SDS011;16028;42.642;23.310;2022-10-30T04:12:48;20.25;;;11.40;;
28910;SDS011;16028;42.642;23.310;2022-10-30T04:15:15;18.55;;;12.07;;
28910;SDS011;16028;42.642;23.310;2022-10-30T04:17:46;13.40;;;10.23;;
28910;SDS011;16028;42.642;23.310;2022-10-30T04:20:13;11.60;;;7.97;;
28910;SDS011;16028;42.642;23.310;2022-10-30T04:22:42;7.25;;;6.15;;
28910;SDS011;16028;42.642;23.310;2022-10-30T04:25:08;8.55;;;6.25;;
28910;SDS011;16028;42.642;23.310;2022-10-30T04:27:38;9.48;;;7.07;;
28910;SDS011;16028;42.642;23.310;2022-10-30T04:30:05;9.77;;;7.07;;
28910;SDS011;16028;42.642;23.310;2022-10-30T04:32:33;8.10;;;6.70;;
28910;SDS011;16028;42.642;23.310;2022-10-30T04:35:00;10.15;;;7.07;;
28910;SDS011;16028;42.642;23.310;2022-10-30T04:37:27;8.57;;;7.50;;
28910;SDS011;16028;42.642;23.310;2022-10-30T04:39:56;9.02;;;7.88;;
28910;SDS011;16028;42.642;23.310;2022-10-30T04:42:22;9.65;;;7.57;;
28910;SDS011;16028;42.642;23.310;2022-10-30T04:44:49;12.55;;;8.27;;
28910;SDS011;16028;42.642;23.310;2022-10-30T04:47:16;11.30;;;8.68;;
28910;SDS011;16028;42.642;23.310;2022-10-30T04:49:42;12.35;;;8.57;;
28910;SDS011;16028;42.642;23.310;2022-10-30T04:52:09;12.70;;;8.80;;
28910;SDS011;16028;42.642;23.310;2022-10-30T04:54:36;11.63;;;8.80;;
28910;SDS011;16028;42.642;23.310;2022-10-30T04:57:04;10.57;;;7.65;;
28910;SDS011;16028;42.642;23.310;2022-10-30T04:59:31;12.60;;;7.75;;
28910;SDS011;16028;42.642;23.310;2022-10-30T05:01:57;10.45;;;7.00;;
28910;SDS011;16028;42.642;23.310;2022-10-30T05:04:24;9.30;;;7.28;;
28910;SDS011;16028;42.642;23.310;2022-10-30T05:06:51;13.27;;;7.68;;
28910;SDS011;16028;42.642;23.310;2022-10-30T05:09:18;10.55;;;7.30;;
28910;SDS011;16028;42.642;23.310;2022-10-30T05:11:44;11.90;;;8.30;;
28910;SDS011;16028;42.642;23.310;2022-10-30T05:14:12;12.93;;;8.23;;
28910;SDS011;16028;42.642;23.310;2022-10-30T05:16:39;13.80;;;9.05;;
28910;SDS011;16028;42.642;23.310;2022-10-30T05:19:06;14.10;;;9.25;;
28910;SDS011;16028;42.642;23.310;2022-10-30T05:21:32;13.20;;;9.50;;
28910;SDS011;16028;42.642;23.310;2022-10-30T05:23:59;11.98;;;9.07;;
28910;SDS011;16028;42.642;23.310;2022-10-30T05:26:26;12.45;;;8.82;;
28910;SDS011;16028;42.642;23.310;2022-10-30T05:28:53;10.23;;;7.40;;
28910;SDS011;16028;42.642;23.310;2022-10-30T05:31:21;10.07;;;7.10;;
28910;SDS011;16028;42.642;23.310;2022-10-30T05:33:48;10.68;;;7.70;;
28910;SDS011;16028;42.642;23.310;2022-10-30T05:36:14;15.75;;;8.20;;
28910;SDS011;16028;42.642;23.310;2022-10-30T05:38:41;16.30;;;9.00;;
28910;SDS011;16028;42.642;23.310;2022-10-30T05:41:09;15.40;;;9.77;;
28910;SDS011;16028;42.642;23.310;2022-10-30T05:43:35;12.40;;;9.50;;
28910;SDS011;16028;42.642;23.310;2022-10-30T05:46:02;14.98;;;9.73;;
28910;SDS011;16028;42.642;23.310;2022-10-30T05:48:31;18.77;;;9.27;;
28910;SDS011;16028;42.642;23.310;2022-10-30T05:50:57;15.27;;;11.02;;
28910;SDS011;16028;42.642;23.310;2022-10-30T05:53:24;20.50;;;12.25;;
28910;SDS011;16028;42.642;23.310;2022-10-30T05:55:54;15.57;;;10.48;;
28910;SDS011;16028;42.642;23.310;2022-10-30T05:58:22;19.10;;;11.57;;
28910;SDS011;16028;42.642;23.310;2022-10-30T06:00:49;15.27;;;10.93;;
28910;SDS011;16028;42.642;23.310;2022-10-30T06:03:16;14.00;;;10.63;;
28910;SDS011;16028;42.642;23.310;2022-10-30T06:05:45;14.48;;;10.77;;
28910;SDS011;16028;42.642;23.310;2022-10-30T06:08:12;20.63;;;13.57;;
28910;SDS011;16028;42.642;23.310;2022-10-30T06:10:40;22.40;;;16.10;;
28910;SDS011;16028;42.642;23.310;2022-10-30T06:13:08;32.80;;;15.43;;
28910;SDS011;16028;42.642;23.310;2022-10-30T06:15:35;26.67;;;16.58;;
28910;SDS011;16028;42.642;23.310;2022-10-30T06:18:02;21.05;;;14.77;;
28910;SDS011;16028;42.642;23.310;2022-10-30T06:20:29;21.52;;;15.70;;
28910;SDS011;16028;42.642;23.310;2022-10-30T06:22:58;23.23;;;17.08;;
28910;SDS011;16028;42.642;23.310;2022-10-30T06:25:26;40.90;;;27.00;;
28910;SDS011;16028;42.642;23.310;2022-10-30T06:27:54;37.85;;;21.25;;
28910;SDS011;16028;42.642;23.310;2022-10-30T06:30:21;29.95;;;20.35;;
28910;SDS011;16028;42.642;23.310;2022-10-30T06:32:48;29.73;;;19.98;;
28910;SDS011;16028;42.642;23.310;2022-10-30T06:35:14;28.95;;;19.77;;
28910;SDS011;16028;42.642;23.310;2022-10-30T06:37:44;33.50;;;20.70;;
28910;SDS011;16028;42.642;23.310;2022-10-30T06:40:14;34.85;;;20.20;;
28910;SDS011;16028;42.642;23.310;2022-10-30T06:42:41;27.85;;;20.42;;
28910;SDS011;16028;42.642;23.310;2022-10-30T06:45:09;29.10;;;19.88;;
28910;SDS011;16028;42.642;23.310;2022-10-30T06:47:36;32.80;;;20.25;;
28910;SDS011;16028;42.642;23.310;2022-10-30T06:50:03;34.53;;;23.33;;
28910;SDS011;16028;42.642;23.310;2022-10-30T06:52:31;39.03;;;24.90;;
28910;SDS011;16028;42.642;23.310;2022-10-30T06:54:58;43.70;;;29.48;;
28910;SDS011;16028;42.642;23.310;2022-10-30T06:57:26;50.65;;;34.03;;
28910;SDS011;16028;42.642;23.310;2022-10-30T06:59:53;43.70;;;30.92;;
28910;SDS011;16028;42.642;23.310;2022-10-30T07:02:20;49.05;;;31.30;;
28910;SDS011;16028;42.642;23.310;2022-10-30T07:04:46;46.22;;;31.50;;
28910;SDS011;16028;42.642;23.310;2022-10-30T07:07:13;31.23;;;23.90;;
28910;SDS011;16028;42.642;23.310;2022-10-30T07:09:41;28.67;;;20.00;;
28910;SDS011;16028;42.642;23.310;2022-10-30T07:12:07;28.35;;;18.95;;
28910;SDS011;16028;42.642;23.310;2022-10-30T07:14:36;27.77;;;18.83;;
28910;SDS011;16028;42.642;23.310;2022-10-30T07:17:03;27.67;;;18.60;;
28910;SDS011;16028;42.642;23.310;2022-10-30T07:19:30;25.88;;;18.77;;
28910;SDS011;16028;42.642;23.310;2022-10-30T07:21:56;25.42;;;17.80;;
28910;SDS011;16028;42.642;23.310;2022-10-30T07:24:23;26.40;;;16.98;;
28910;SDS011;16028;42.642;23.310;2022-10-30T07:26:50;24.00;;;17.23;;
28910;SDS011;16028;42.642;23.310;2022-10-30T07:29:16;24.15;;;17.67;;
28910;SDS011;16028;42.642;23.310;2022-10-30T07:31:45;26.33;;;18.40;;
28910;SDS011;16028;42.642;23.310;2022-10-30T07:34:13;27.42;;;18.88;;
28910;SDS011;16028;42.642;23.310;2022-10-30T07:36:40;27.20;;;18.02;;
28910;SDS011;16028;42.642;23.310;2022-10-30T07:39:07;30.30;;;18.27;;
28910;SDS011;16028;42.642;23.310;2022-10-30T07:41:34;25.42;;;18.73;;
28910;SDS011;16028;42.642;23.310;2022-10-30T07:44:00;29.17;;;19.27;;
28910;SDS011;16028;42.642;23.310;2022-10-30T07:46:27;29.83;;;18.50;;
28910;SDS011;16028;42.642;23.310;2022-10-30T07:48:55;25.75;;;18.88;;
28910;SDS011;16028;42.642;23.310;2022-10-30T07:51:22;25.17;;;17.70;;
28910;SDS011;16028;42.642;23.310;2022-10-30T07:53:49;26.42;;;19.80;;
28910;SDS011;16028;42.642;23.310;2022-10-30T07:56:16;31.17;;;19.27;;
28910;SDS011;16028;42.642;23.310;2022-10-30T07:58:42;28.60;;;18.25;;
28910;SDS011;16028;42.642;23.310;2022-10-30T08:01:09;24.83;;;17.40;;
28910;SDS011;16028;42.642;23.310;2022-10-30T08:03:36;27.73;;;18.27;;
28910;SDS011;16028;42.642;23.310;2022-10-30T08:06:04;24.10;;;17.83;;
28910;SDS011;16028;42.642;23.310;2022-10-30T08:08:31;27.45;;;18.73;;
28910;SDS011;16028;42.642;23.310;2022-10-30T08:10:58;29.40;;;17.88;;
28910;SDS011;16028;42.642;23.310;2022-10-30T08:13:25;24.67;;;17.20;;
28910;SDS011;16028;42.642;23.310;2022-10-30T08:15:51;30.48;;;16.98;;
28910;SDS011;16028;42.642;23.310;2022-10-30T08:18:18;23.77;;;16.50;;
28910;SDS011;16028;42.642;23.310;2022-10-30T08:20:47;24.13;;;15.70;;
28910;SDS011;16028;42.642;23.310;2022-10-30T08:23:15;23.17;;;15.85;;
28910;SDS011;16028;42.642;23.310;2022-10-30T08:25:43;26.10;;;15.57;;
28910;SDS011;16028;42.642;23.310;2022-10-30T08:28:11;19.77;;;14.73;;
28910;SDS011;16028;42.642;23.310;2022-10-30T08:30:38;20.23;;;13.70;;
28910;SDS011;16028;42.642;23.310;2022-10-30T08:33:06;20.80;;;13.82;;
28910;SDS011;16028;42.642;23.310;2022-10-30T08:35:37;18.55;;;13.85;;
28910;SDS011;16028;42.642;23.310;2022-10-30T08:38:04;19.95;;;14.10;;
28910;SDS011;16028;42.642;23.310;2022-10-30T08:40:32;20.17;;;15.02;;
28910;SDS011;16028;42.642;23.310;2022-10-30T08:42:59;20.00;;;14.75;;
28910;SDS011;16028;42.642;23.310;2022-10-30T08:45:26;22.65;;;15.57;;
28910;SDS011;16028;42.642;23.310;2022-10-30T08:47:55;25.05;;;16.00;;
28910;SDS011;16028;42.642;23.310;2022-10-30T08:50:23;21.40;;;15.23;;
28910;SDS011;16028;42.642;23.310;2022-10-30T08:52:50;29.38;;;15.85;;
28910;SDS011;16028;42.642;23.310;2022-10-30T08:55:16;23.88;;;15.75;;
28910;SDS011;16028;42.642;23.310;2022-10-30T08:57:44;21.00;;;14.95;;
28910;SDS011;16028;42.642;23.310;2022-10-30T09:00:11;27.98;;;15.63;;
28910;SDS011;16028;42.642;23.310;2022-10-30T09:02:39;23.17;;;16.08;;
28910;SDS011;16028;42.642;23.310;2022-10-30T09:05:06;24.48;;;15.85;;
28910;SDS011;16028;42.642;23.310;2022-10-30T09:07:33;26.17;;;16.85;;
28910;SDS011;16028;42.642;23.310;2022-10-30T09:10:00;25.45;;;15.73;;
28910;SDS011;16028;42.642;23.310;2022-10-30T09:12:27;27.98;;;15.38;;
28910;SDS011;16028;42.642;23.310;2022-10-30T09:14:56;25.63;;;15.63;;
28910;SDS011;16028;42.642;23.310;2022-10-30T09:17:22;18.55;;;13.02;;
28910;SDS011;16028;42.642;23.310;2022-10-30T09:19:49;24.33;;;14.95;;
28910;SDS011;16028;42.642;23.310;2022-10-30T09:22:16;19.83;;;13.45;;
28910;SDS011;16028;42.642;23.310;2022-10-30T09:24:42;26.95;;;15.98;;
28910;SDS011;16028;42.642;23.310;2022-10-30T09:27:09;23.10;;;14.70;;
28910;SDS011;16028;42.642;23.310;2022-10-30T09:29:36;21.48;;;14.95;;
28910;SDS011;16028;42.642;23.310;2022-10-30T09:32:04;21.88;;;15.23;;
28910;SDS011;16028;42.642;23.310;2022-10-30T09:34:34;28.77;;;15.32;;
28910;SDS011;16028;42.642;23.310;2022-10-30T09:37:01;23.92;;;15.73;;
28910;SDS011;16028;42.642;23.310;2022-10-30T09:39:28;27.25;;;16.08;;
28910;SDS011;16028;42.642;23.310;2022-10-30T09:45:04;24.38;;;16.23;;
28910;SDS011;16028;42.642;23.310;2022-10-30T09:47:44;26.67;;;16.00;;
28910;SDS011;16028;42.642;23.310;2022-10-30T09:50:26;24.10;;;16.65;;
28910;SDS011;16028;42.642;23.310;2022-10-30T09:52:58;25.38;;;17.40;;
28910;SDS011;16028;42.642;23.310;2022-10-30T09:55:33;25.52;;;15.90;;
28910;SDS011;16028;42.642;23.310;2022-10-30T09:58:11;28.83;;;17.75;;
28910;SDS011;16028;42.642;23.310;2022-10-30T10:00:48;30.13;;;17.08;;
28910;SDS011;16028;42.642;23.310;2022-10-30T10:03:28;27.60;;;17.05;;
28910;SDS011;16028;42.642;23.310;2022-10-30T10:06:04;29.00;;;17.48;;
28910;SDS011;16028;42.642;23.310;2022-10-30T10:08:41;24.17;;;16.20;;
28910;SDS011;16028;42.642;23.310;2022-10-30T10:11:12;26.08;;;15.38;;
28910;SDS011;16028;42.642;23.310;2022-10-30T10:13:43;21.60;;;14.00;;
28910;SDS011;16028;42.642;23.310;2022-10-30T10:16:16;22.50;;;14.02;;
28910;SDS011;16028;42.642;23.310;2022-10-30T10:18:46;19.52;;;12.55;;
28910;SDS011;16028;42.642;23.310;2022-10-30T10:21:18;20.23;;;11.95;;
28910;SDS011;16028;42.642;23.310;2022-10-30T10:23:49;20.50;;;10.02;;
28910;SDS011;16028;42.642;23.310;2022-10-30T10:26:21;14.52;;;9.70;;
28910;SDS011;16028;42.642;23.310;2022-10-30T10:29:03;17.98;;;9.35;;
28910;SDS011;16028;42.642;23.310;2022-10-30T10:31:45;13.60;;;9.23;;
28910;SDS011;16028;42.642;23.310;2022-10-30T10:34:28;16.58;;;9.05;;
28910;SDS011;16028;42.642;23.310;2022-10-30T10:37:15;10.65;;;7.70;;
28910;SDS011;16028;42.642;23.310;2022-10-30T10:39:59;13.77;;;7.63;;
28910;SDS011;16028;42.642;23.310;2022-10-30T10:42:41;11.15;;;8.13;;
28910;SDS011;16028;42.642;23.310;2022-10-30T10:45:17;17.42;;;7.47;;
28910;SDS011;16028;42.642;23.310;2022-10-30T10:47:53;12.68;;;6.80;;
28910;SDS011;16028;42.642;23.310;2022-10-30T10:50:32;12.15;;;6.63;;
28910;SDS011;16028;42.642;23.310;2022-10-30T10:53:02;9.82;;;6.40;;
28910;SDS011;16028;42.642;23.310;2022-10-30T10:55:35;9.38;;;6.00;;
28910;SDS011;16028;42.642;23.310;2022-10-30T10:58:06;8.13;;;5.50;;
28910;SDS011;16028;42.642;23.310;2022-10-30T11:00:47;9.20;;;5.88;;
28910;SDS011;16028;42.642;23.310;2022-10-30T11:03:14;13.05;;;5.68;;
28910;SDS011;16028;42.642;23.310;2022-10-30T11:05:49;12.55;;;5.13;;
28910;SDS011;16028;42.642;23.310;2022-10-30T11:08:18;15.15;;;6.05;;
28910;SDS011;16028;42.642;23.310;2022-10-30T11:10:46;15.45;;;5.35;;
28910;SDS011;16028;42.642;23.310;2022-10-30T11:13:19;8.07;;;5.65;;
28910;SDS011;16028;42.642;23.310;2022-10-30T11:15:52;8.85;;;5.20;;
28910;SDS011;16028;42.642;23.310;2022-10-30T11:18:25;11.25;;;5.18;;
28910;SDS011;16028;42.642;23.310;2022-10-30T11:20:56;7.45;;;5.03;;
28910;SDS011;16028;42.642;23.310;2022-10-30T11:25:56;8.38;;;4.90;;
28910;SDS011;16028;42.642;23.310;2022-10-30T11:28:27;7.07;;;4.35;;
28910;SDS011;16028;42.642;23.310;2022-10-30T11:31:17;7.25;;;3.95;;
28910;SDS011;16028;42.642;23.310;2022-10-30T11:33:48;8.25;;;4.65;;
28910;SDS011;16028;42.642;23.310;2022-10-30T11:36:17;7.63;;;4.38;;
28910;SDS011;16028;42.642;23.310;2022-10-30T11:38:48;7.22;;;4.55;;
28910;SDS011;16028;42.642;23.310;2022-10-30T11:41:15;6.88;;;4.22;;
28910;SDS011;16028;42.642;23.310;2022-10-30T11:43:46;11.30;;;5.28;;
28910;SDS011;16028;42.642;23.310;2022-10-30T11:46:18;18.88;;;6.85;;
28910;SDS011;16028;42.642;23.310;2022-10-30T11:48:47;8.23;;;3.93;;
28910;SDS011;16028;42.642;23.310;2022-10-30T11:51:29;9.50;;;4.50;;
28910;SDS011;16028;42.642;23.310;2022-10-30T11:53:59;7.03;;;4.22;;
28910;SDS011;16028;42.642;23.310;2022-10-30T11:56:27;11.23;;;4.53;;
28910;SDS011;16028;42.642;23.310;2022-10-30T11:58:55;7.20;;;4.38;;
28910;SDS011;16028;42.642;23.310;2022-10-30T12:01:24;10.80;;;5.20;;
28910;SDS011;16028;42.642;23.310;2022-10-30T12:03:54;5.22;;;3.92;;
28910;SDS011;16028;42.642;23.310;2022-10-30T12:06:25;8.88;;;4.75;;
28910;SDS011;16028;42.642;23.310;2022-10-30T12:09:02;11.90;;;4.05;;
28910;SDS011;16028;42.642;23.310;2022-10-30T12:11:35;5.07;;;3.78;;
28910;SDS011;16028;42.642;23.310;2022-10-30T12:14:04;5.25;;;3.63;;
28910;SDS011;16028;42.642;23.310;2022-10-30T12:16:31;7.30;;;3.67;;
28910;SDS011;16028;42.642;23.310;2022-10-30T12:19:00;4.90;;;3.65;;
28910;SDS011;16028;42.642;23.310;2022-10-30T12:21:30;5.70;;;3.63;;
28910;SDS011;16028;42.642;23.310;2022-10-30T12:24:03;6.93;;;3.35;;
28910;SDS011;16028;42.642;23.310;2022-10-30T12:26:33;10.00;;;3.72;;
28910;SDS011;16028;42.642;23.310;2022-10-30T12:29:03;7.22;;;3.33;;
28910;SDS011;16028;42.642;23.310;2022-10-30T12:31:35;5.53;;;3.17;;
28910;SDS011;16028;42.642;23.310;2022-10-30T12:34:17;12.23;;;3.60;;
28910;SDS011;16028;42.642;23.310;2022-10-30T12:36:55;7.13;;;2.88;;
28910;SDS011;16028;42.642;23.310;2022-10-30T12:39:30;7.68;;;3.55;;
28910;SDS011;16028;42.642;23.310;2022-10-30T12:42:07;10.32;;;3.83;;
28910;SDS011;16028;42.642;23.310;2022-10-30T12:44:40;6.60;;;3.55;;
28910;SDS011;16028;42.642;23.310;2022-10-30T12:47:12;5.75;;;3.33;;
28910;SDS011;16028;42.642;23.310;2022-10-30T12:49:46;7.47;;;3.33;;
28910;SDS011;16028;42.642;23.310;2022-10-30T12:52:18;6.95;;;3.88;;
28910;SDS011;16028;42.642;23.310;2022-10-30T12:54:52;5.38;;;3.50;;
28910;SDS011;16028;42.642;23.310;2022-10-30T12:57:24;6.05;;;3.20;;
28910;SDS011;16028;42.642;23.310;2022-10-30T12:59:55;6.85;;;2.90;;
28910;SDS011;16028;42.642;23.310;2022-10-30T13:02:38;8.73;;;3.30;;
28910;SDS011;16028;42.642;23.310;2022-10-30T13:05:17;6.97;;;3.78;;
28910;SDS011;16028;42.642;23.310;2022-10-30T13:07:50;7.35;;;3.00;;
28910;SDS011;16028;42.642;23.310;2022-10-30T13:10:30;6.63;;;3.15;;
28910;SDS011;16028;42.642;23.310;2022-10-30T13:13:06;5.22;;;2.50;;
28910;SDS011;16028;42.642;23.310;2022-10-30T13:15:37;6.55;;;2.38;;
28910;SDS011;16028;42.642;23.310;2022-10-30T13:18:12;6.78;;;2.42;;
28910;SDS011;16028;42.642;23.310;2022-10-30T13:21:00;6.72;;;2.80;;
28910;SDS011;16028;42.642;23.310;2022-10-30T13:23:34;6.10;;;2.50;;
28910;SDS011;16028;42.642;23.310;2022-10-30T13:26:12;5.80;;;2.53;;
28910;SDS011;16028;42.642;23.310;2022-10-30T13:28:46;5.53;;;2.67;;
28910;SDS011;16028;42.642;23.310;2022-10-30T13:31:22;6.78;;;2.40;;
28910;SDS011;16028;42.642;23.310;2022-10-30T13:33:59;5.55;;;2.08;;
28910;SDS011;16028;42.642;23.310;2022-10-30T13:36:32;2.42;;;2.00;;
28910;SDS011;16028;42.642;23.310;2022-10-30T13:39:11;3.70;;;2.70;;
28910;SDS011;16028;42.642;23.310;2022-10-30T13:42:01;6.88;;;4.00;;
28910;SDS011;16028;42.642;23.310;2022-10-30T13:44:42;5.68;;;1.92;;
28910;SDS011;16028;42.642;23.310;2022-10-30T13:47:21;6.85;;;2.30;;
28910;SDS011;16028;42.642;23.310;2022-10-30T13:50:07;5.18;;;2.10;;
28910;SDS011;16028;42.642;23.310;2022-10-30T13:52:43;17.20;;;12.65;;
28910;SDS011;16028;42.642;23.310;2022-10-30T13:55:18;17.75;;;13.52;;
28910;SDS011;16028;42.642;23.310;2022-10-30T13:57:50;6.50;;;2.50;;
28910;SDS011;16028;42.642;23.310;2022-10-30T14:00:21;4.18;;;1.98;;
28910;SDS011;16028;42.642;23.310;2022-10-30T14:03:03;6.82;;;2.47;;
28910;SDS011;16028;42.642;23.310;2022-10-30T14:05:41;10.98;;;2.58;;
28910;SDS011;16028;42.642;23.310;2022-10-30T14:08:14;6.25;;;2.33;;
28910;SDS011;16028;42.642;23.310;2022-10-30T14:10:51;10.73;;;2.78;;
28910;SDS011;16028;42.642;23.310;2022-10-30T14:13:24;8.13;;;2.60;;
28910;SDS011;16028;42.642;23.310;2022-10-30T14:15:52;3.17;;;2.13;;
28910;SDS011;16028;42.642;23.310;2022-10-30T14:18:22;11.00;;;2.42;;
28910;SDS011;16028;42.642;23.310;2022-10-30T14:24:03;5.63;;;2.20;;
28910;SDS011;16028;42.642;23.310;2022-10-30T14:26:36;3.50;;;2.10;;
28910;SDS011;16028;42.642;23.310;2022-10-30T14:31:57;4.22;;;2.60;;
28910;SDS011;16028;42.642;23.310;2022-10-30T14:34:39;5.22;;;2.50;;
28910;SDS011;16028;42.642;23.310;2022-10-30T14:37:06;10.07;;;2.40;;
28910;SDS011;16028;42.642;23.310;2022-10-30T14:39:37;8.10;;;3.40;;
28910;SDS011;16028;42.642;23.310;2022-10-30T14:42:07;6.18;;;2.90;;
28910;SDS011;16028;42.642;23.310;2022-10-30T14:44:50;9.43;;;2.67;;
28910;SDS011;16028;42.642;23.310;2022-10-30T14:47:38;15.40;;;3.17;;
28910;SDS011;16028;42.642;23.310;2022-10-30T14:50:31;7.03;;;2.70;;